createdAt,value
2022-12-23T00:00:54.980Z,16.03
2022-12-23T00:03:23.857Z,17.17
2022-12-23T00:05:53.165Z,17.17
2022-12-23T00:08:22.427Z,20.17
2022-12-23T00:10:51.983Z,17.33
2022-12-23T00:13:38.343Z,16.17
2022-12-23T00:16:10.929Z,17.83
2022-12-23T00:18:40.529Z,18.93
2022-12-23T00:21:12.002Z,23.00
2022-12-23T00:23:42.895Z,20.73
2022-12-23T00:26:16.720Z,20.30
2022-12-23T00:28:45.708Z,19.07
2022-12-23T00:31:18.745Z,17.47
2022-12-23T00:33:50.035Z,20.70
2022-12-23T00:36:21.061Z,17.90
2022-12-23T00:39:07.694Z,21.13
2022-12-23T00:41:54.282Z,16.33
2022-12-23T00:44:23.073Z,18.87
2022-12-23T00:46:53.279Z,24.00
2022-12-23T00:49:39.908Z,21.00
2022-12-23T00:52:10.348Z,22.97
2022-12-23T00:54:39.201Z,22.83
2022-12-23T00:57:07.967Z,24.40
2022-12-23T00:59:36.765Z,23.53
2022-12-23T01:02:24.514Z,25.93
2022-12-23T01:05:11.060Z,26.57
2022-12-23T01:07:40.435Z,27.97
2022-12-23T01:10:10.313Z,21.47
2022-12-23T01:12:38.874Z,24.83
2022-12-23T01:15:08.903Z,21.27
2022-12-23T01:17:39.012Z,20.40
2022-12-23T01:20:09.025Z,23.57
2022-12-23T01:22:37.941Z,23.33
2022-12-23T01:25:07.599Z,20.33
2022-12-23T01:27:36.362Z,24.83
2022-12-23T01:30:06.230Z,22.97
2022-12-23T01:32:34.979Z,24.13
2022-12-23T01:35:05.459Z,19.93
2022-12-23T01:37:34.216Z,21.83
2022-12-23T01:40:02.984Z,21.50
2022-12-23T01:42:46.705Z,17.93
2022-12-23T01:45:19.687Z,21.03
2022-12-23T01:47:51.810Z,25.97
2022-12-23T01:50:26.881Z,22.57
2022-12-23T01:53:07.731Z,27.97
2022-12-23T01:55:41.307Z,21.47
2022-12-23T01:58:14.405Z,21.60
2022-12-23T02:01:01.592Z,22.00
2022-12-23T02:03:45.647Z,23.73
2022-12-23T02:06:40.753Z,22.50
2022-12-23T02:09:20.634Z,18.67
2022-12-23T02:12:34.986Z,22.53
2022-12-23T02:15:52.383Z,20.13
2022-12-23T02:18:39.447Z,18.30
2022-12-23T02:21:33.497Z,23.40
2022-12-23T02:24:40.486Z,19.77
2022-12-23T02:27:16.075Z,18.67
2022-12-23T02:30:26.081Z,17.37
2022-12-23T02:33:18.772Z,15.43
2022-12-23T02:35:54.415Z,17.63
2022-12-23T02:38:28.082Z,15.23
2022-12-23T02:41:05.727Z,16.70
2022-12-23T02:43:43.569Z,22.03
2022-12-23T02:46:21.096Z,19.77
2022-12-23T02:48:56.175Z,22.17
2022-12-23T02:51:31.574Z,28.00
2022-12-23T02:54:05.230Z,15.97
2022-12-23T02:56:36.735Z,22.13
2022-12-23T02:59:11.734Z,20.53
2022-12-23T03:01:42.735Z,21.10
2022-12-23T03:04:11.543Z,22.20
2022-12-23T03:06:42.329Z,21.47
2022-12-23T03:09:14.437Z,17.73
2022-12-23T03:11:52.332Z,23.97
2022-12-23T03:14:37.516Z,17.33
2022-12-23T03:17:19.574Z,16.43
2022-12-23T03:19:55.108Z,17.67
2022-12-23T03:22:33.207Z,21.13
2022-12-23T03:25:07.292Z,22.40
2022-12-23T03:27:41.381Z,18.37
2022-12-23T03:30:13.289Z,24.63
2022-12-23T03:32:49.139Z,21.60
2022-12-23T03:35:21.465Z,17.93
2022-12-23T03:37:52.499Z,21.87
2022-12-23T03:40:24.515Z,19.63
2022-12-23T03:42:59.051Z,20.20
2022-12-23T03:45:40.669Z,21.87
2022-12-23T03:48:20.807Z,13.67
2022-12-23T03:50:53.765Z,17.77
2022-12-23T03:53:27.130Z,18.00
2022-12-23T03:56:00.637Z,16.17
2022-12-23T03:58:38.252Z,14.93
2022-12-23T04:01:13.801Z,16.97
2022-12-23T04:03:53.301Z,16.63
2022-12-23T04:06:23.023Z,13.63
2022-12-23T04:08:52.071Z,17.90
2022-12-23T04:11:21.128Z,20.20
2022-12-23T04:13:50.110Z,13.23
2022-12-23T04:16:19.040Z,16.17
2022-12-23T04:18:49.058Z,13.13
2022-12-23T04:21:17.623Z,12.47
2022-12-23T04:23:46.223Z,13.67
2022-12-23T04:26:14.989Z,14.53
2022-12-23T04:28:43.740Z,15.17
2022-12-23T04:31:12.548Z,13.63
2022-12-23T04:33:41.335Z,18.57
2022-12-23T04:36:11.479Z,15.87
2022-12-23T04:38:40.141Z,14.47
2022-12-23T04:41:08.897Z,16.37
2022-12-23T04:43:37.581Z,17.53
2022-12-23T04:46:06.600Z,17.67
2022-12-23T04:48:35.249Z,15.43
2022-12-23T04:51:04.232Z,16.80
2022-12-23T04:53:34.491Z,15.13
2022-12-23T04:56:03.130Z,13.90
2022-12-23T04:58:31.728Z,13.10
2022-12-23T05:01:04.199Z,13.30
2022-12-23T05:03:33.256Z,12.53
2022-12-23T05:06:02.268Z,11.93
2022-12-23T05:08:31.149Z,13.33
2022-12-23T05:11:01.316Z,13.73
2022-12-23T05:13:30.014Z,14.77
2022-12-23T05:15:58.803Z,12.33
2022-12-23T05:18:27.489Z,13.30
2022-12-23T05:20:56.072Z,11.87
2022-12-23T05:23:24.753Z,10.13
2022-12-23T05:25:55.515Z,13.20
2022-12-23T05:28:25.654Z,14.33
2022-12-23T05:31:00.225Z,12.67
2022-12-23T05:33:29.410Z,15.03
2022-12-23T05:35:58.524Z,14.03
2022-12-23T05:38:27.648Z,16.23
2022-12-23T05:40:56.353Z,10.77
2022-12-23T05:43:26.529Z,11.53
2022-12-23T05:45:55.442Z,13.27
2022-12-23T05:48:24.411Z,11.47
2022-12-23T05:50:53.956Z,11.43
2022-12-23T05:53:24.671Z,8.30
2022-12-23T05:55:53.438Z,10.67
2022-12-23T05:58:22.045Z,9.83
2022-12-23T06:00:52.127Z,9.83
2022-12-23T06:03:20.989Z,7.83
2022-12-23T06:05:52.017Z,8.93
2022-12-23T06:08:20.611Z,6.57
2022-12-23T06:10:49.410Z,6.10
2022-12-23T06:13:17.991Z,9.80
2022-12-23T06:15:46.686Z,5.73
2022-12-23T06:18:16.915Z,6.40
2022-12-23T06:20:47.806Z,5.00
2022-12-23T06:23:16.580Z,4.70
2022-12-23T06:25:45.349Z,4.57
2022-12-23T06:28:14.115Z,5.27
2022-12-23T06:30:42.857Z,5.23
2022-12-23T06:33:11.481Z,6.27
2022-12-23T06:35:41.581Z,4.57
2022-12-23T06:38:12.164Z,4.93
2022-12-23T06:40:41.426Z,5.17
2022-12-23T06:43:11.507Z,9.73
2022-12-23T06:45:40.345Z,8.30
2022-12-23T06:48:09.271Z,3.87
2022-12-23T06:50:37.905Z,3.90
2022-12-23T06:53:08.208Z,4.37
2022-12-23T06:55:37.132Z,4.20
2022-12-23T06:58:05.832Z,5.20
2022-12-23T07:00:35.237Z,4.43
2022-12-23T07:05:55.444Z,4.77
2022-12-23T07:08:25.648Z,3.70
2022-12-23T07:10:59.643Z,5.30
2022-12-23T07:13:28.797Z,4.17
2022-12-23T07:15:57.688Z,4.07
2022-12-23T07:18:26.947Z,4.43
2022-12-23T07:20:55.636Z,3.60
2022-12-23T07:23:25.892Z,4.13
2022-12-23T07:25:55.885Z,4.73
2022-12-23T07:28:24.862Z,3.90
2022-12-23T07:30:53.538Z,5.87
2022-12-23T07:33:22.166Z,4.30
2022-12-23T07:35:50.804Z,3.73
2022-12-23T07:38:19.500Z,4.47
2022-12-23T07:40:51.740Z,5.77
2022-12-23T07:43:20.391Z,4.80
2022-12-23T07:45:53.996Z,4.47
2022-12-23T07:48:26.364Z,4.00
2022-12-23T07:50:54.948Z,3.57
2022-12-23T07:53:23.546Z,3.37
2022-12-23T07:55:56.741Z,2.67
2022-12-23T07:58:26.345Z,3.40
2022-12-23T08:01:01.882Z,2.80
2022-12-23T08:03:30.817Z,3.37
2022-12-23T08:06:04.478Z,3.97
2022-12-23T08:08:33.470Z,3.47
2022-12-23T08:11:05.300Z,3.37
2022-12-23T08:13:35.834Z,2.50
2022-12-23T08:16:05.625Z,2.87
2022-12-23T08:18:36.537Z,2.57
2022-12-23T08:21:07.066Z,2.47
2022-12-23T08:23:36.409Z,7.87
2022-12-23T08:26:08.742Z,2.17
2022-12-23T08:28:38.487Z,2.63
2022-12-23T08:31:09.517Z,3.07
2022-12-23T08:33:39.539Z,4.53
2022-12-23T08:36:22.440Z,1.67
2022-12-23T08:38:52.813Z,1.60
2022-12-23T08:41:25.205Z,5.47
2022-12-23T08:43:57.733Z,2.23
2022-12-23T08:46:27.819Z,2.00
2022-12-23T08:49:23.569Z,2.17
2022-12-23T08:51:55.002Z,2.60
2022-12-23T08:54:24.091Z,2.37
2022-12-23T08:56:54.255Z,2.17
2022-12-23T08:59:23.091Z,3.27
2022-12-23T09:01:51.846Z,2.30
2022-12-23T09:04:20.618Z,2.37
2022-12-23T09:06:49.511Z,2.50
2022-12-23T09:09:18.158Z,3.23
2022-12-23T09:11:46.986Z,2.47
2022-12-23T09:14:17.212Z,2.13
2022-12-23T09:16:46.011Z,3.63
2022-12-23T09:19:14.632Z,4.43
2022-12-23T09:21:43.366Z,4.40
2022-12-23T09:24:11.950Z,3.33
2022-12-23T09:26:40.611Z,3.37
2022-12-23T09:29:09.364Z,2.33
2022-12-23T09:31:39.719Z,4.23
2022-12-23T09:34:08.565Z,2.17
2022-12-23T09:36:37.695Z,2.50
2022-12-23T09:39:06.453Z,4.13
2022-12-23T09:41:50.017Z,2.53
2022-12-23T09:44:48.040Z,1.87
2022-12-23T09:47:22.211Z,3.00
2022-12-23T09:49:54.584Z,5.03
2022-12-23T09:52:28.215Z,2.00
2022-12-23T09:54:59.145Z,2.33
2022-12-23T09:57:36.536Z,2.23
2022-12-23T10:00:09.058Z,2.80
2022-12-23T10:02:49.313Z,3.93
2022-12-23T10:05:31.867Z,1.50
2022-12-23T10:08:05.275Z,1.87
2022-12-23T10:10:38.911Z,1.40
2022-12-23T10:13:12.668Z,2.73
2022-12-23T10:15:47.459Z,3.63
2022-12-23T10:18:24.819Z,2.00
2022-12-23T10:20:59.864Z,3.60
2022-12-23T10:23:33.601Z,1.67
2022-12-23T10:26:05.278Z,2.10
2022-12-23T10:28:33.952Z,2.73
2022-12-23T10:34:10.143Z,4.83
2022-12-23T10:36:50.820Z,2.27
2022-12-23T10:39:28.978Z,4.90
2022-12-23T10:42:08.620Z,3.67
2022-12-23T10:45:05.700Z,6.67
2022-12-23T10:47:45.600Z,2.73
2022-12-23T10:50:35.991Z,4.17
2022-12-23T10:53:10.140Z,3.43
2022-12-23T10:55:40.292Z,3.80
2022-12-23T10:58:20.508Z,6.53
2022-12-23T11:00:54.898Z,5.47
2022-12-23T11:03:29.032Z,3.60
2022-12-23T11:06:03.237Z,3.77
2022-12-23T11:08:33.267Z,4.10
2022-12-23T11:11:02.610Z,3.57
2022-12-23T11:13:40.657Z,3.73
2022-12-23T11:16:23.614Z,5.90
2022-12-23T11:18:58.408Z,4.60
2022-12-23T11:21:29.751Z,5.37
2022-12-23T11:24:28.233Z,5.73
2022-12-23T11:27:03.754Z,7.40
2022-12-23T11:29:36.379Z,6.47
2022-12-23T11:32:20.799Z,5.87
2022-12-23T11:34:50.721Z,6.57
2022-12-23T11:37:33.398Z,5.00
2022-12-23T11:40:02.564Z,5.10
2022-12-23T11:42:34.661Z,8.00
2022-12-23T11:45:08.021Z,5.83
2022-12-23T11:47:41.401Z,5.30
2022-12-23T11:50:33.720Z,10.50
2022-12-23T11:53:23.723Z,7.80
2022-12-23T11:56:02.163Z,7.17
2022-12-23T11:58:34.213Z,7.40
2022-12-23T12:01:09.407Z,7.53
2022-12-23T12:03:48.401Z,8.47
2022-12-23T12:06:20.188Z,6.13
2022-12-23T12:08:53.641Z,7.40
2022-12-23T12:11:29.791Z,6.37
2022-12-23T12:14:01.309Z,5.80
2022-12-23T12:16:50.167Z,6.17
2022-12-23T12:19:25.187Z,5.97
2022-12-23T12:21:57.632Z,8.67
2022-12-23T12:24:33.032Z,5.70
2022-12-23T12:27:03.966Z,6.03
2022-12-23T12:29:40.618Z,6.57
2022-12-23T12:32:19.844Z,6.50
2022-12-23T12:34:57.056Z,6.47
2022-12-23T12:37:34.710Z,7.30
2022-12-23T12:40:16.498Z,7.60
2022-12-23T12:42:50.620Z,6.73
2022-12-23T12:45:23.587Z,6.83
2022-12-23T12:48:13.103Z,6.80
2022-12-23T12:50:55.966Z,9.63
2022-12-23T12:53:25.605Z,8.60
2022-12-23T12:55:59.753Z,7.70
2022-12-23T12:58:28.562Z,10.07
2022-12-23T13:01:11.426Z,7.30
2022-12-23T13:04:14.979Z,8.53
2022-12-23T13:06:54.142Z,9.70
2022-12-23T13:09:29.948Z,11.37
2022-12-23T13:12:07.026Z,9.93
2022-12-23T13:14:56.496Z,8.83
2022-12-23T13:17:29.152Z,8.03
2022-12-23T13:20:04.348Z,8.20
2022-12-23T13:22:35.400Z,10.20
2022-12-23T13:25:10.191Z,7.80
2022-12-23T13:27:45.743Z,6.67
2022-12-23T13:30:17.464Z,6.90
2022-12-23T13:33:18.418Z,8.23
2022-12-23T13:36:09.293Z,4.80
2022-12-23T13:39:00.031Z,7.70
2022-12-23T13:41:35.779Z,8.23
2022-12-23T13:44:10.818Z,8.00
2022-12-23T13:46:48.632Z,8.07
2022-12-23T13:49:26.693Z,8.27
2022-12-23T13:52:05.264Z,6.57
2022-12-23T13:54:47.357Z,4.43
2022-12-23T13:57:28.962Z,5.47
2022-12-23T14:00:05.862Z,6.13
2022-12-23T14:02:51.159Z,6.13
2022-12-23T14:05:35.139Z,6.37
2022-12-23T14:08:06.493Z,5.87
2022-12-23T14:10:36.257Z,7.60
2022-12-23T14:13:09.978Z,6.77
2022-12-23T14:15:53.527Z,7.87
2022-12-23T14:18:46.734Z,8.03
2022-12-23T14:21:28.696Z,9.63
2022-12-23T14:24:16.027Z,9.47
2022-12-23T14:27:05.570Z,11.20
2022-12-23T14:29:52.703Z,8.50
2022-12-23T14:32:28.121Z,9.57
2022-12-23T14:35:24.468Z,9.30
2022-12-23T14:38:24.459Z,11.00
2022-12-23T14:40:59.011Z,12.53
2022-12-23T14:43:59.384Z,11.97
2022-12-23T14:46:59.603Z,11.07
2022-12-23T14:49:42.949Z,9.97
2022-12-23T14:52:46.501Z,11.73
2022-12-23T14:55:54.811Z,11.83
2022-12-23T14:58:53.850Z,13.00
2022-12-23T15:01:33.035Z,12.87
2022-12-23T15:04:09.336Z,13.93
2022-12-23T15:06:41.750Z,12.30
2022-12-23T15:09:19.277Z,11.13
2022-12-23T15:11:48.602Z,13.37
2022-12-23T15:14:35.260Z,13.07
2022-12-23T15:17:17.448Z,12.30
2022-12-23T15:19:47.787Z,11.20
2022-12-23T15:22:24.070Z,12.10
2022-12-23T15:25:21.530Z,11.37
2022-12-23T15:27:53.517Z,11.67
2022-12-23T15:30:34.090Z,18.40
2022-12-23T15:33:27.864Z,12.20
2022-12-23T15:35:55.544Z,12.47
2022-12-23T15:38:36.001Z,15.30
2022-12-23T15:41:17.260Z,14.37
2022-12-23T15:43:46.712Z,15.10
2022-12-23T15:46:25.053Z,16.00
2022-12-23T15:48:59.485Z,16.73
2022-12-23T15:52:18.257Z,15.93
2022-12-23T15:55:37.279Z,16.93
2022-12-23T15:58:07.497Z,16.77
2022-12-23T16:00:41.377Z,17.50
2022-12-23T16:03:25.974Z,18.60
2022-12-23T16:05:55.787Z,16.13
2022-12-23T16:08:30.095Z,15.37
2022-12-23T16:11:13.421Z,17.20
2022-12-23T16:13:58.366Z,17.73
2022-12-23T16:16:39.191Z,17.57
2022-12-23T16:19:08.511Z,19.77
2022-12-23T16:21:38.351Z,15.17
2022-12-23T16:24:10.271Z,14.37
2022-12-23T16:26:42.623Z,15.47
2022-12-23T16:29:13.533Z,15.23
2022-12-23T16:31:51.101Z,14.97
2022-12-23T16:34:21.112Z,19.90
2022-12-23T16:36:49.863Z,19.33
2022-12-23T16:39:21.988Z,15.37
2022-12-23T16:41:51.302Z,20.47
2022-12-23T16:44:21.345Z,16.57
2022-12-23T16:46:51.992Z,19.10
2022-12-23T16:49:24.446Z,16.77
2022-12-23T16:51:56.790Z,17.50
2022-12-23T16:54:25.554Z,16.83
2022-12-23T16:56:54.222Z,21.70
2022-12-23T16:59:26.102Z,21.30
2022-12-23T17:02:01.196Z,17.37
2022-12-23T17:04:31.940Z,15.20
2022-12-23T17:07:00.637Z,20.53
2022-12-23T17:09:29.257Z,16.90
2022-12-23T17:11:57.794Z,15.63
2022-12-23T17:14:27.824Z,24.40
2022-12-23T17:16:57.689Z,16.93
2022-12-23T17:19:28.487Z,20.73
2022-12-23T17:22:02.863Z,15.73
2022-12-23T17:24:31.661Z,18.87
2022-12-23T17:27:00.502Z,18.77
2022-12-23T17:29:30.589Z,19.37
2022-12-23T17:31:59.372Z,17.60
2022-12-23T17:34:27.983Z,17.83
2022-12-23T17:36:56.709Z,15.73
2022-12-23T17:39:25.550Z,18.13
2022-12-23T17:41:54.227Z,13.60
2022-12-23T17:44:22.861Z,20.03
2022-12-23T17:46:52.947Z,12.47
2022-12-23T17:49:21.605Z,15.07
2022-12-23T17:51:50.491Z,15.53
2022-12-23T17:54:24.485Z,15.03
2022-12-23T17:56:53.622Z,19.07
2022-12-23T17:59:22.528Z,11.47
2022-12-23T18:01:53.038Z,15.33
2022-12-23T18:04:21.873Z,12.73
2022-12-23T18:06:50.540Z,8.17
2022-12-23T18:09:21.382Z,9.00
2022-12-23T18:11:50.235Z,7.80
2022-12-23T18:14:28.594Z,9.33
2022-12-23T18:16:58.859Z,10.40
2022-12-23T18:19:32.957Z,8.03
2022-12-23T18:22:01.509Z,12.00
2022-12-23T18:24:31.336Z,7.03
2022-12-23T18:26:59.903Z,3.53
2022-12-23T18:29:28.538Z,3.23
2022-12-23T18:31:58.772Z,5.23
2022-12-23T18:34:27.453Z,4.73
2022-12-23T18:36:56.114Z,4.73
2022-12-23T18:39:24.823Z,4.67
2022-12-23T18:41:53.499Z,3.93
2022-12-23T18:44:22.725Z,3.63
2022-12-23T18:46:53.739Z,2.90
2022-12-23T18:49:23.910Z,4.80
2022-12-23T18:51:52.744Z,3.37
2022-12-23T18:54:21.615Z,4.20
2022-12-23T18:56:52.235Z,4.60
2022-12-23T18:59:29.650Z,3.23
2022-12-23T19:02:01.515Z,2.83
2022-12-23T19:04:31.689Z,5.47
2022-12-23T19:07:00.388Z,5.50
2022-12-23T19:09:29.361Z,2.43
2022-12-23T19:11:58.308Z,4.07
2022-12-23T19:14:27.140Z,3.90
2022-12-23T19:16:55.911Z,2.43
2022-12-23T19:19:24.647Z,2.90
2022-12-23T19:21:54.844Z,4.03
2022-12-23T19:24:23.595Z,3.63
2022-12-23T19:26:52.316Z,4.50
2022-12-23T19:29:21.500Z,3.20
2022-12-23T19:31:50.166Z,2.20
2022-12-23T19:34:18.830Z,2.67
2022-12-23T19:36:48.230Z,2.50
2022-12-23T19:39:24.208Z,5.00
2022-12-23T19:41:52.937Z,3.43
2022-12-23T19:44:21.642Z,3.87
2022-12-23T19:46:50.674Z,2.57
2022-12-23T19:50:12.898Z,2.93
2022-12-23T19:52:41.646Z,3.10
2022-12-23T19:55:13.029Z,3.33
2022-12-23T19:57:41.752Z,2.90
2022-12-23T20:00:11.441Z,2.63
2022-12-23T20:02:42.750Z,4.27
2022-12-23T20:05:11.588Z,2.63
2022-12-23T20:07:40.393Z,4.47
2022-12-23T20:10:11.928Z,3.53
2022-12-23T20:12:40.864Z,3.07
2022-12-23T20:15:10.740Z,2.33
2022-12-23T20:17:40.408Z,4.97
2022-12-23T20:20:10.299Z,2.07
2022-12-23T20:22:38.959Z,8.03
2022-12-23T20:25:08.423Z,5.20
2022-12-23T20:27:38.949Z,8.47
2022-12-23T20:30:08.921Z,4.03
2022-12-23T20:32:37.572Z,10.40
2022-12-23T20:35:07.394Z,4.73
2022-12-23T20:37:36.044Z,3.93
2022-12-23T20:40:05.093Z,4.60
2022-12-23T20:42:33.762Z,7.00
2022-12-23T20:45:04.519Z,8.73
2022-12-23T20:47:33.427Z,6.33
2022-12-23T20:50:02.268Z,10.33
2022-12-23T20:52:30.965Z,7.27
2022-12-23T20:55:01.702Z,6.33
2022-12-23T20:57:31.718Z,6.07
2022-12-23T21:00:00.650Z,18.10
2022-12-23T21:02:32.045Z,4.20
2022-12-23T21:05:00.897Z,2.97
2022-12-23T21:07:29.723Z,5.47
2022-12-23T21:09:58.654Z,3.80
2022-12-23T21:12:27.257Z,3.03
2022-12-23T21:14:56.213Z,3.97
2022-12-23T21:17:26.006Z,4.33
2022-12-23T21:19:58.204Z,5.07
2022-12-23T21:22:26.945Z,5.83
2022-12-23T21:24:55.637Z,2.40
2022-12-23T21:27:24.321Z,3.03
2022-12-23T21:29:53.133Z,4.80
2022-12-23T21:32:21.941Z,9.13
2022-12-23T21:34:50.805Z,4.53
2022-12-23T21:37:20.976Z,2.27
2022-12-23T21:39:49.723Z,3.93
2022-12-23T21:42:18.438Z,5.33
2022-12-23T21:44:47.163Z,4.40
2022-12-23T21:47:15.943Z,3.97
2022-12-23T21:49:44.724Z,4.53
2022-12-23T21:52:13.404Z,6.13
2022-12-23T21:54:45.517Z,5.00
2022-12-23T21:57:14.236Z,3.60
2022-12-23T21:59:42.966Z,3.07
2022-12-23T22:02:16.483Z,4.90
2022-12-23T22:04:45.383Z,3.33
2022-12-23T22:07:13.986Z,6.27
2022-12-23T22:09:42.791Z,4.87
2022-12-23T22:12:13.011Z,3.83
2022-12-23T22:14:41.649Z,3.13
2022-12-23T22:17:10.316Z,4.50
2022-12-23T22:19:39.006Z,3.37
2022-12-23T22:22:07.687Z,2.27
2022-12-23T22:24:36.319Z,5.03
2022-12-23T22:27:05.046Z,2.80
2022-12-23T22:29:35.198Z,3.53
2022-12-23T22:32:04.142Z,4.17
2022-12-23T22:34:32.878Z,5.97
2022-12-23T22:37:01.513Z,5.40
2022-12-23T22:39:30.432Z,6.30
2022-12-23T22:41:59.149Z,5.93
2022-12-23T22:44:27.760Z,7.00
2022-12-23T22:46:57.995Z,5.13
2022-12-23T22:49:26.797Z,6.00
2022-12-23T22:51:55.559Z,3.57
2022-12-23T22:54:24.344Z,5.63
2022-12-23T22:56:53.119Z,4.37
2022-12-23T22:59:23.380Z,3.43
2022-12-23T23:01:52.771Z,5.80
2022-12-23T23:04:23.011Z,7.57
2022-12-23T23:06:51.759Z,7.60
2022-12-23T23:09:22.022Z,4.20
2022-12-23T23:11:51.254Z,5.40
2022-12-23T23:14:21.787Z,5.20
2022-12-23T23:16:50.542Z,7.00
2022-12-23T23:19:20.714Z,6.27
2022-12-23T23:21:50.913Z,6.20
2022-12-23T23:24:19.695Z,6.33
2022-12-23T23:26:48.323Z,5.83
2022-12-23T23:29:16.968Z,7.77
2022-12-23T23:31:45.646Z,8.57
2022-12-23T23:34:14.863Z,6.40
2022-12-23T23:36:43.816Z,9.00
2022-12-23T23:39:14.844Z,5.43
2022-12-23T23:41:44.215Z,7.60
2022-12-23T23:44:13.431Z,5.03
2022-12-23T23:46:42.136Z,5.47
2022-12-23T23:49:11.113Z,7.67
2022-12-23T23:51:41.745Z,4.90
2022-12-23T23:54:10.845Z,4.83
2022-12-23T23:56:41.179Z,4.70
2022-12-23T23:59:10.542Z,5.80
